Tendoy, Idaho
Current Conditions -  °F | °C
As of 1:55 AM on Friday 24 Oct 2014 (Local Time) from KSMN Reporting Station
Overcast Overcast  
Wind Chill: 50°   Ceiling: 6500
Heat Index: 50°   Visibility: 10mi
Dew Point: 41°   Wind: 3mph
Humidity: 71%   Direction: 100°E
Pressure: 30.01"   Gusts: NA
Location:  44.96°N, 113.64°W
Report Text: KSMN 240755Z AUTO 10003KT 10SM OVC065 10/05 A3001 RMK AO1
Loading
Personal Weather Stations






























Interactive Weather Map
Tropical Storm Tracking
New forecast layout! Learn more

10-Day Weather Forecast

Advertisements
Track Severe Weather on mobile